createdAt,value
2023-12-09T00:01:52.482Z,8.57
2023-12-09T00:04:19.312Z,8.90
2023-12-09T00:06:50.044Z,7.78
2023-12-09T00:09:19.590Z,8.02
2023-12-09T00:11:46.484Z,8.35
2023-12-09T00:14:13.256Z,7.68
2023-12-09T00:16:41.377Z,7.88
2023-12-09T00:19:10.345Z,7.78
2023-12-09T00:21:37.652Z,6.78
2023-12-09T00:24:04.500Z,8.35
2023-12-09T00:26:32.432Z,6.43
2023-12-09T00:28:59.604Z,7.20
2023-12-09T00:31:26.522Z,7.65
2023-12-09T00:33:53.840Z,7.05
2023-12-09T00:36:20.750Z,8.38
2023-12-09T00:38:47.616Z,7.93
2023-12-09T00:41:14.585Z,8.32
2023-12-09T00:43:41.320Z,9.13
2023-12-09T00:46:08.086Z,7.43
2023-12-09T00:48:34.995Z,8.10
2023-12-09T00:51:01.954Z,8.68
2023-12-09T00:53:28.735Z,7.30
2023-12-09T00:55:55.413Z,10.20
2023-12-09T00:58:22.173Z,8.57
2023-12-09T01:00:49.006Z,8.05
2023-12-09T01:03:15.897Z,8.85
2023-12-09T01:05:42.750Z,7.00
2023-12-09T01:08:09.558Z,7.93
2023-12-09T01:10:36.252Z,7.65
2023-12-09T01:13:03.447Z,7.00
2023-12-09T01:15:30.193Z,7.28
2023-12-09T01:17:57.380Z,7.10
2023-12-09T01:20:25.794Z,7.10
2023-12-09T01:22:52.770Z,6.80
2023-12-09T01:25:19.573Z,6.72
2023-12-09T01:27:46.992Z,7.32
2023-12-09T01:30:14.297Z,7.35
2023-12-09T01:32:41.921Z,5.47
2023-12-09T01:35:08.849Z,5.97
2023-12-09T01:37:35.608Z,5.60
2023-12-09T01:40:02.633Z,6.07
2023-12-09T01:42:29.708Z,5.65
2023-12-09T01:44:56.759Z,5.13
2023-12-09T01:47:23.611Z,4.90
2023-12-09T01:49:52.164Z,5.95
2023-12-09T01:52:19.544Z,4.63
2023-12-09T01:54:46.426Z,6.10
2023-12-09T01:57:13.172Z,5.78
2023-12-09T01:59:39.872Z,5.85
2023-12-09T02:02:06.870Z,5.80
2023-12-09T02:04:33.682Z,6.15
2023-12-09T02:07:00.345Z,5.38
2023-12-09T02:09:27.058Z,6.85
2023-12-09T02:11:57.921Z,6.43
2023-12-09T02:14:31.712Z,7.20
2023-12-09T02:17:05.502Z,6.57
2023-12-09T02:19:32.949Z,6.60
2023-12-09T02:22:10.655Z,6.43
2023-12-09T02:24:37.837Z,6.60
2023-12-09T02:27:22.345Z,5.72
2023-12-09T02:29:54.903Z,7.25
2023-12-09T02:32:22.716Z,7.32
2023-12-09T02:34:50.357Z,5.80
2023-12-09T02:37:18.312Z,6.47
2023-12-09T02:39:45.059Z,7.22
2023-12-09T02:42:12.354Z,5.97
2023-12-09T02:44:43.113Z,6.28
2023-12-09T02:47:16.023Z,6.30
2023-12-09T02:49:43.669Z,5.57
2023-12-09T02:52:13.391Z,5.82
2023-12-09T02:54:40.126Z,5.30
2023-12-09T02:57:06.948Z,6.28
2023-12-09T02:59:33.766Z,6.15
2023-12-09T03:02:00.563Z,6.22
2023-12-09T03:04:28.685Z,6.45
2023-12-09T03:06:55.482Z,5.32
2023-12-09T03:09:22.279Z,6.07
2023-12-09T03:11:49.086Z,6.05
2023-12-09T03:14:15.830Z,6.40
2023-12-09T03:16:42.544Z,7.28
2023-12-09T03:19:09.348Z,6.60
2023-12-09T03:21:36.186Z,5.97
2023-12-09T03:24:02.916Z,7.60
2023-12-09T03:26:29.714Z,6.57
2023-12-09T03:28:56.421Z,7.43
2023-12-09T03:31:23.104Z,5.95
2023-12-09T03:33:49.984Z,6.82
2023-12-09T03:36:16.925Z,5.95
2023-12-09T03:38:43.862Z,6.70
2023-12-09T03:41:11.120Z,5.88
2023-12-09T03:43:38.175Z,7.25
2023-12-09T03:46:05.200Z,6.47
2023-12-09T03:48:33.213Z,6.60
2023-12-09T03:51:00.295Z,7.30
2023-12-09T03:53:27.929Z,7.78
2023-12-09T03:55:54.635Z,7.03
2023-12-09T03:58:23.681Z,7.25
2023-12-09T04:00:51.124Z,6.60
2023-12-09T04:03:18.398Z,6.78
2023-12-09T04:05:45.388Z,7.50
2023-12-09T04:08:12.121Z,6.93
2023-12-09T04:10:38.785Z,6.80
2023-12-09T04:13:05.493Z,6.25
2023-12-09T04:15:32.300Z,7.18
2023-12-09T04:17:59.280Z,6.50
2023-12-09T04:20:26.130Z,5.40
2023-12-09T04:22:52.847Z,7.15
2023-12-09T04:25:19.657Z,5.75
2023-12-09T04:27:46.469Z,5.65
2023-12-09T04:30:13.663Z,7.03
2023-12-09T04:32:40.548Z,6.97
2023-12-09T04:35:07.600Z,5.60
2023-12-09T04:37:34.379Z,6.82
2023-12-09T04:40:01.918Z,6.53
2023-12-09T04:42:29.803Z,6.80
2023-12-09T04:44:56.695Z,6.40
2023-12-09T04:47:23.494Z,7.13
2023-12-09T04:49:50.372Z,5.60
2023-12-09T04:52:17.114Z,6.97
2023-12-09T04:54:43.791Z,5.43
2023-12-09T04:57:10.506Z,6.18
2023-12-09T04:59:37.634Z,5.22
2023-12-09T05:02:04.774Z,5.68
2023-12-09T05:04:31.518Z,5.28
2023-12-09T05:06:58.226Z,5.57
2023-12-09T05:09:25.013Z,5.72
2023-12-09T05:11:51.885Z,5.53
2023-12-09T05:14:18.600Z,5.25
2023-12-09T05:16:46.034Z,7.40
2023-12-09T05:19:12.820Z,6.20
2023-12-09T05:21:39.612Z,5.70
2023-12-09T05:24:06.503Z,6.28
2023-12-09T05:26:33.369Z,6.78
2023-12-09T05:29:00.394Z,6.38
2023-12-09T05:31:27.730Z,5.80
2023-12-09T05:33:55.667Z,6.43
2023-12-09T05:36:22.508Z,6.70
2023-12-09T05:38:49.308Z,5.15
2023-12-09T05:41:16.168Z,5.38
2023-12-09T05:43:44.778Z,5.80
2023-12-09T05:46:21.174Z,5.75
2023-12-09T05:48:49.128Z,4.95
2023-12-09T05:51:16.263Z,5.53
2023-12-09T05:53:43.158Z,5.60
2023-12-09T05:56:11.329Z,7.38
2023-12-09T05:58:38.659Z,7.13
2023-12-09T06:01:05.428Z,7.88
2023-12-09T06:03:32.335Z,5.57
2023-12-09T06:05:59.664Z,6.72
2023-12-09T06:08:26.426Z,6.03
2023-12-09T06:10:53.451Z,6.40
2023-12-09T06:13:20.190Z,5.88
2023-12-09T06:15:49.638Z,5.75
2023-12-09T06:18:17.788Z,6.35
2023-12-09T06:20:44.503Z,7.55
2023-12-09T06:23:11.211Z,6.70
2023-12-09T06:25:37.992Z,5.45
2023-12-09T06:28:04.895Z,6.10
2023-12-09T06:30:31.629Z,6.43
2023-12-09T06:32:58.478Z,4.95
2023-12-09T06:35:25.231Z,6.93
2023-12-09T06:37:52.321Z,7.78
2023-12-09T06:40:19.042Z,6.00
2023-12-09T06:42:45.804Z,6.38
2023-12-09T06:45:12.749Z,6.45
2023-12-09T06:47:39.584Z,6.65
2023-12-09T06:50:07.610Z,5.25
2023-12-09T06:52:34.429Z,4.82
2023-12-09T06:55:01.160Z,6.72
2023-12-09T06:57:28.170Z,5.28
2023-12-09T06:59:54.947Z,6.20
2023-12-09T07:02:21.684Z,6.53
2023-12-09T07:04:48.510Z,5.43
2023-12-09T07:07:21.485Z,6.47
2023-12-09T07:09:49.254Z,6.43
2023-12-09T07:12:15.962Z,7.22
2023-12-09T07:14:43.021Z,8.27
2023-12-09T07:17:10.332Z,6.60
2023-12-09T07:19:37.185Z,7.18
2023-12-09T07:22:04.825Z,6.13
2023-12-09T07:24:31.719Z,6.85
2023-12-09T07:26:58.468Z,6.18
2023-12-09T07:29:27.122Z,5.80
2023-12-09T07:31:54.883Z,5.70
2023-12-09T07:34:21.818Z,6.75
2023-12-09T07:36:48.876Z,7.70
2023-12-09T07:39:15.597Z,7.03
2023-12-09T07:41:44.078Z,5.88
2023-12-09T07:44:12.551Z,6.18
2023-12-09T07:46:39.264Z,7.15
2023-12-09T07:49:06.049Z,6.18
2023-12-09T07:51:32.922Z,8.00
2023-12-09T07:53:59.690Z,5.30
2023-12-09T07:56:26.438Z,6.15
2023-12-09T07:58:53.234Z,6.20
2023-12-09T08:01:20.414Z,5.53
2023-12-09T08:03:47.367Z,6.60
2023-12-09T08:06:15.048Z,6.07
2023-12-09T08:08:41.722Z,6.45
2023-12-09T08:11:08.518Z,6.55
2023-12-09T08:13:35.326Z,6.72
2023-12-09T08:16:02.040Z,8.98
2023-12-09T08:18:28.827Z,6.47
2023-12-09T08:20:55.967Z,6.93
2023-12-09T08:23:22.796Z,5.35
2023-12-09T08:25:50.984Z,6.88
2023-12-09T08:28:17.705Z,6.45
2023-12-09T08:30:44.516Z,6.38
2023-12-09T08:33:11.313Z,7.63
2023-12-09T08:35:40.058Z,6.30
2023-12-09T08:38:08.310Z,5.80
2023-12-09T08:40:35.062Z,6.93
2023-12-09T08:43:01.782Z,6.47
2023-12-09T08:45:30.507Z,7.05
2023-12-09T08:47:57.330Z,5.72
2023-12-09T08:50:25.723Z,6.53
2023-12-09T08:52:54.137Z,7.60
2023-12-09T08:55:21.305Z,7.60
2023-12-09T08:57:49.813Z,6.35
2023-12-09T09:00:21.839Z,7.68
2023-12-09T09:02:49.305Z,7.28
2023-12-09T09:05:16.309Z,7.32
2023-12-09T09:07:46.659Z,7.15
2023-12-09T09:10:13.500Z,8.07
2023-12-09T09:12:40.339Z,6.43
2023-12-09T09:15:09.237Z,8.45
2023-12-09T09:17:36.875Z,6.30
2023-12-09T09:20:06.559Z,6.85
2023-12-09T09:22:34.248Z,7.07
2023-12-09T09:25:01.062Z,8.02
2023-12-09T09:27:27.858Z,6.25
2023-12-09T09:29:54.732Z,7.50
2023-12-09T09:32:22.752Z,6.20
2023-12-09T09:34:49.946Z,6.85
2023-12-09T09:37:16.901Z,8.60
2023-12-09T09:39:43.710Z,7.10
2023-12-09T09:42:33.337Z,9.57
2023-12-09T09:45:09.680Z,8.30
2023-12-09T09:47:41.321Z,10.35
2023-12-09T09:50:12.008Z,8.20
2023-12-09T09:52:41.946Z,8.55
2023-12-09T09:55:09.333Z,7.40
2023-12-09T09:57:36.213Z,8.52
2023-12-09T10:00:07.777Z,8.27
2023-12-09T10:02:36.739Z,8.82
2023-12-09T10:05:04.593Z,13.45
2023-12-09T10:07:31.864Z,10.13
2023-12-09T10:09:59.173Z,9.38
2023-12-09T10:12:27.878Z,10.10
2023-12-09T10:14:54.882Z,8.25
2023-12-09T10:17:21.869Z,9.20
2023-12-09T10:19:48.985Z,8.27
2023-12-09T10:22:16.053Z,10.25
2023-12-09T10:24:51.101Z,9.82
2023-12-09T10:27:19.918Z,9.93
2023-12-09T10:29:47.887Z,9.38
2023-12-09T10:32:14.990Z,8.15
2023-12-09T10:34:42.263Z,7.68
2023-12-09T10:37:09.817Z,7.18
2023-12-09T10:39:36.891Z,8.05
2023-12-09T10:42:06.763Z,8.50
2023-12-09T10:44:33.878Z,7.22
2023-12-09T10:47:00.651Z,7.22
2023-12-09T10:49:27.441Z,9.35
2023-12-09T10:51:54.567Z,9.93
2023-12-09T10:54:21.324Z,7.70
2023-12-09T10:56:48.023Z,12.93
2023-12-09T10:59:14.779Z,10.60
2023-12-09T11:01:41.761Z,8.65
2023-12-09T11:04:10.414Z,7.93
2023-12-09T11:06:38.997Z,6.32
2023-12-09T11:09:07.527Z,8.07
2023-12-09T11:11:34.332Z,7.72
2023-12-09T11:14:01.246Z,9.02
2023-12-09T11:16:30.911Z,7.80
2023-12-09T11:21:33.058Z,8.50
2023-12-09T11:24:00.101Z,7.03
2023-12-09T11:26:31.332Z,8.77
2023-12-09T11:29:06.037Z,8.38
2023-12-09T11:31:36.351Z,8.43
2023-12-09T11:34:11.290Z,11.60
2023-12-09T11:36:40.109Z,6.35
2023-12-09T11:39:08.774Z,7.25
2023-12-09T11:41:35.814Z,6.43
2023-12-09T11:44:05.944Z,8.50
2023-12-09T11:46:36.148Z,7.07
2023-12-09T11:49:06.250Z,7.63
2023-12-09T11:51:37.707Z,6.45
2023-12-09T11:54:06.736Z,6.78
2023-12-09T11:56:33.622Z,6.00
2023-12-09T11:59:00.491Z,6.78
2023-12-09T12:01:30.511Z,6.47
2023-12-09T12:03:57.398Z,6.57
2023-12-09T12:06:24.831Z,6.20
2023-12-09T12:08:54.385Z,8.07
2023-12-09T12:11:25.212Z,7.43
2023-12-09T12:13:53.646Z,6.20
2023-12-09T12:16:20.877Z,8.38
2023-12-09T12:18:48.994Z,7.90
2023-12-09T12:21:16.366Z,8.13
2023-12-09T12:23:43.741Z,8.60
2023-12-09T12:26:12.635Z,6.43
2023-12-09T12:28:39.911Z,8.13
2023-12-09T12:31:07.986Z,7.63
2023-12-09T12:33:35.084Z,7.22
2023-12-09T12:36:02.636Z,8.00
2023-12-09T12:38:29.662Z,7.28
2023-12-09T12:40:58.276Z,6.35
2023-12-09T12:43:29.953Z,8.00
2023-12-09T12:45:59.597Z,6.53
2023-12-09T12:50:53.985Z,6.72
2023-12-09T12:53:24.544Z,6.07
2023-12-09T12:55:52.944Z,6.10
2023-12-09T12:58:19.849Z,8.05
2023-12-09T13:00:50.767Z,5.85
2023-12-09T13:03:18.206Z,6.38
2023-12-09T13:05:45.162Z,7.10
2023-12-09T13:08:12.083Z,6.75
2023-12-09T13:10:38.889Z,7.32
2023-12-09T13:13:06.997Z,7.20
2023-12-09T13:15:34.368Z,6.05
2023-12-09T13:18:02.280Z,8.35
2023-12-09T13:20:30.357Z,7.47
2023-12-09T13:22:57.816Z,7.47
2023-12-09T13:25:24.686Z,6.32
2023-12-09T13:27:51.519Z,8.55
2023-12-09T13:30:18.423Z,6.22
2023-12-09T13:32:46.786Z,6.13
2023-12-09T13:35:15.602Z,7.13
2023-12-09T13:37:44.177Z,6.75
2023-12-09T13:40:12.915Z,7.32
2023-12-09T13:42:40.216Z,6.65
2023-12-09T13:45:07.824Z,7.38
2023-12-09T13:47:36.186Z,6.13
2023-12-09T13:50:03.681Z,9.30
2023-12-09T13:52:32.129Z,7.65
2023-12-09T13:54:59.710Z,6.93
2023-12-09T13:57:26.781Z,8.05
2023-12-09T13:59:53.576Z,7.45
2023-12-09T14:02:20.594Z,7.75
2023-12-09T14:04:47.654Z,8.45
2023-12-09T14:07:15.105Z,7.97
2023-12-09T14:09:41.982Z,8.10
2023-12-09T14:12:09.155Z,7.30
2023-12-09T14:14:35.914Z,6.07
2023-12-09T14:17:02.906Z,8.68
2023-12-09T14:19:30.180Z,8.30
2023-12-09T14:21:57.090Z,8.48
2023-12-09T14:24:23.803Z,7.47
2023-12-09T14:26:50.766Z,7.68
2023-12-09T14:29:17.474Z,9.13
2023-12-09T14:31:44.221Z,9.10
2023-12-09T14:34:11.028Z,9.35
2023-12-09T14:36:37.946Z,8.57
2023-12-09T14:39:04.885Z,9.98
2023-12-09T14:41:31.805Z,12.23
2023-12-09T14:44:03.558Z,9.50
2023-12-09T14:46:34.706Z,11.50
2023-12-09T14:49:01.714Z,10.18
2023-12-09T14:51:40.001Z,12.05
2023-12-09T14:56:37.110Z,9.35
2023-12-09T14:59:03.841Z,11.50
2023-12-09T15:01:30.678Z,12.73
2023-12-09T15:03:59.487Z,10.45
2023-12-09T15:06:26.451Z,10.27
2023-12-09T15:08:53.439Z,10.60
2023-12-09T15:11:20.134Z,8.57
2023-12-09T15:13:47.520Z,9.05
2023-12-09T15:16:14.320Z,8.43
2023-12-09T15:18:41.482Z,9.90
2023-12-09T15:21:08.719Z,7.55
2023-12-09T15:23:35.537Z,11.55
2023-12-09T15:26:02.888Z,9.50
2023-12-09T15:28:30.065Z,8.75
2023-12-09T15:30:56.933Z,10.20
2023-12-09T15:33:23.822Z,9.70
2023-12-09T15:35:50.832Z,9.23
2023-12-09T15:38:18.705Z,12.25
2023-12-09T15:40:47.667Z,9.88
2023-12-09T15:43:14.923Z,13.02
2023-12-09T15:45:42.020Z,11.77
2023-12-09T15:48:09.104Z,9.95
2023-12-09T15:50:36.518Z,10.05
2023-12-09T15:53:03.231Z,10.55
2023-12-09T15:55:31.030Z,14.05
2023-12-09T15:57:59.236Z,12.52
2023-12-09T16:00:27.026Z,13.80
2023-12-09T16:02:54.010Z,10.27
2023-12-09T16:05:21.006Z,14.40
2023-12-09T16:07:48.071Z,11.80
2023-12-09T16:10:14.975Z,9.20
2023-12-09T16:12:45.579Z,10.73
2023-12-09T16:15:13.313Z,10.55
2023-12-09T16:17:42.058Z,11.10
2023-12-09T16:20:09.531Z,11.55
2023-12-09T16:22:36.463Z,10.80
2023-12-09T16:25:03.388Z,10.73
2023-12-09T16:27:30.226Z,9.13
2023-12-09T16:29:57.117Z,10.82
2023-12-09T16:32:23.969Z,10.70
2023-12-09T16:34:50.750Z,10.13
2023-12-09T16:37:17.600Z,13.27
2023-12-09T16:39:44.397Z,9.60
2023-12-09T16:42:11.770Z,10.05
2023-12-09T16:44:38.507Z,8.05
2023-12-09T16:47:06.109Z,16.67
2023-12-09T16:49:33.986Z,10.18
2023-12-09T16:52:00.790Z,8.98
2023-12-09T16:54:27.519Z,8.65
2023-12-09T16:56:54.512Z,13.95
2023-12-09T16:59:21.280Z,10.30
2023-12-09T17:01:48.283Z,10.50
2023-12-09T17:04:15.127Z,9.63
2023-12-09T17:06:42.886Z,9.07
2023-12-09T17:09:11.014Z,10.10
2023-12-09T17:11:37.901Z,11.45
2023-12-09T17:14:05.430Z,11.27
2023-12-09T17:16:32.184Z,8.05
2023-12-09T17:18:59.072Z,9.05
2023-12-09T17:21:25.965Z,9.40
2023-12-09T17:23:53.253Z,17.90
2023-12-09T17:26:20.087Z,11.65
2023-12-09T17:28:46.833Z,11.93
2023-12-09T17:31:13.541Z,9.57
2023-12-09T17:33:40.916Z,15.35
2023-12-09T17:36:08.082Z,12.70
2023-12-09T17:38:34.946Z,11.25
2023-12-09T17:41:03.301Z,9.43
2023-12-09T17:43:30.076Z,8.73
2023-12-09T17:45:57.010Z,9.80
2023-12-09T17:48:24.968Z,8.20
2023-12-09T17:50:51.975Z,9.32
2023-12-09T17:53:21.104Z,10.20
2023-12-09T17:55:48.644Z,10.18
2023-12-09T17:58:15.420Z,9.50
2023-12-09T18:00:42.402Z,9.10
2023-12-09T18:03:09.411Z,9.60
2023-12-09T18:05:36.283Z,9.23
2023-12-09T18:08:04.167Z,8.77
2023-12-09T18:10:30.859Z,8.52
2023-12-09T18:12:57.585Z,8.88
2023-12-09T18:15:24.361Z,8.68
2023-12-09T18:17:51.141Z,9.35
2023-12-09T18:20:17.935Z,11.15
2023-12-09T18:22:44.667Z,9.57
2023-12-09T18:25:13.528Z,11.32
2023-12-09T18:27:40.907Z,9.98
2023-12-09T18:30:09.256Z,7.75
2023-12-09T18:32:39.531Z,29.95
2023-12-09T18:35:10.098Z,9.32
2023-12-09T18:37:37.999Z,11.10
2023-12-09T18:40:07.159Z,12.00
2023-12-09T18:42:34.831Z,12.93
2023-12-09T18:45:02.061Z,12.23
2023-12-09T18:47:32.287Z,11.27
2023-12-09T18:49:59.579Z,10.77
2023-12-09T18:52:26.783Z,11.88
2023-12-09T18:54:53.715Z,11.82
2023-12-09T18:57:21.404Z,21.25
2023-12-09T18:59:48.177Z,16.42
2023-12-09T19:02:15.686Z,11.45
2023-12-09T19:04:44.451Z,12.98
2023-12-09T19:07:12.364Z,10.98
2023-12-09T19:09:39.326Z,10.30
2023-12-09T19:12:06.667Z,9.05
2023-12-09T19:14:33.369Z,12.05
2023-12-09T19:17:00.275Z,9.73
2023-12-09T19:19:29.288Z,11.40
2023-12-09T19:21:56.201Z,10.88
2023-12-09T19:24:23.005Z,12.55
2023-12-09T19:26:49.776Z,10.68
2023-12-09T19:29:17.807Z,12.05
2023-12-09T19:31:44.952Z,9.65
2023-12-09T19:34:11.978Z,8.90
2023-12-09T19:36:39.266Z,12.60
2023-12-09T19:39:06.022Z,9.15
2023-12-09T19:41:32.705Z,8.63
2023-12-09T19:43:59.417Z,9.35
2023-12-09T19:46:26.234Z,13.27
2023-12-09T19:48:53.522Z,10.38
2023-12-09T19:51:20.555Z,9.85
2023-12-09T19:53:47.299Z,9.63
2023-12-09T19:56:14.072Z,10.98
2023-12-09T19:58:40.805Z,13.40
2023-12-09T20:01:07.695Z,11.52
2023-12-09T20:03:34.709Z,11.40
2023-12-09T20:06:02.220Z,15.77
2023-12-09T20:08:28.934Z,11.95
2023-12-09T20:10:55.755Z,11.88
2023-12-09T20:13:22.522Z,9.68
2023-12-09T20:15:49.284Z,10.80
2023-12-09T20:18:16.156Z,16.55
2023-12-09T20:20:42.914Z,11.85
2023-12-09T20:23:09.610Z,10.07
2023-12-09T20:25:36.464Z,15.65
2023-12-09T20:28:05.710Z,10.35
2023-12-09T20:30:32.592Z,10.57
2023-12-09T20:33:00.663Z,14.10
2023-12-09T20:35:27.618Z,11.25
2023-12-09T20:37:54.354Z,14.93
2023-12-09T20:40:21.082Z,15.40
2023-12-09T20:42:50.110Z,15.75
2023-12-09T20:45:16.948Z,18.23
2023-12-09T20:47:43.696Z,11.48
2023-12-09T20:50:10.680Z,12.45
2023-12-09T20:52:39.050Z,14.88
2023-12-09T20:55:06.948Z,11.00
2023-12-09T20:57:33.850Z,12.13
2023-12-09T21:00:00.666Z,11.07
2023-12-09T21:02:27.674Z,11.25
2023-12-09T21:04:54.687Z,10.55
2023-12-09T21:07:21.612Z,10.85
2023-12-09T21:09:48.616Z,10.43
2023-12-09T21:12:15.606Z,10.88
2023-12-09T21:14:42.341Z,12.90
2023-12-09T21:17:09.651Z,10.85
2023-12-09T21:19:36.965Z,12.23
2023-12-09T21:22:04.157Z,11.40
2023-12-09T21:24:31.172Z,11.55
2023-12-09T21:26:58.038Z,11.23
2023-12-09T21:29:24.914Z,9.93
2023-12-09T21:31:51.764Z,9.32
2023-12-09T21:34:19.089Z,12.30
2023-12-09T21:36:46.460Z,12.35
2023-12-09T21:39:13.603Z,11.05
2023-12-09T21:41:40.414Z,12.13
2023-12-09T21:44:07.219Z,10.68
2023-12-09T21:46:34.033Z,12.38
2023-12-09T21:49:01.026Z,12.75
2023-12-09T21:51:29.477Z,11.30
2023-12-09T21:53:56.242Z,11.68
2023-12-09T21:56:26.793Z,13.10
2023-12-09T21:58:53.840Z,12.05
2023-12-09T22:01:21.669Z,11.98
2023-12-09T22:03:49.207Z,11.68
2023-12-09T22:06:16.246Z,10.70
2023-12-09T22:08:44.782Z,11.90
2023-12-09T22:11:12.282Z,10.48
2023-12-09T22:13:39.733Z,10.40
2023-12-09T22:16:07.219Z,12.15
2023-12-09T22:18:34.090Z,11.00
2023-12-09T22:21:03.955Z,11.68
2023-12-09T22:23:30.748Z,12.45
2023-12-09T22:25:57.499Z,11.82
2023-12-09T22:28:24.297Z,11.85
2023-12-09T22:30:51.033Z,10.93
2023-12-09T22:33:18.951Z,11.98
2023-12-09T22:35:45.918Z,11.30
2023-12-09T22:38:13.897Z,12.02
2023-12-09T22:40:40.817Z,11.73
2023-12-09T22:43:07.699Z,12.40
2023-12-09T22:45:34.700Z,11.80
2023-12-09T22:48:02.763Z,10.20
2023-12-09T22:50:29.574Z,13.32
2023-12-09T22:52:56.308Z,13.40
2023-12-09T22:55:23.508Z,13.07
2023-12-09T22:57:50.288Z,11.63
2023-12-09T23:00:28.511Z,12.98
2023-12-09T23:02:55.838Z,12.63
2023-12-09T23:05:22.711Z,12.60
2023-12-09T23:07:49.521Z,12.98
2023-12-09T23:10:16.697Z,11.35
2023-12-09T23:12:43.714Z,12.25
2023-12-09T23:15:10.936Z,12.48
2023-12-09T23:17:37.882Z,13.63
2023-12-09T23:20:05.264Z,12.35
2023-12-09T23:22:31.986Z,10.77
2023-12-09T23:24:58.774Z,13.48
2023-12-09T23:27:25.567Z,10.88
2023-12-09T23:29:52.356Z,10.30
2023-12-09T23:32:19.171Z,10.80
2023-12-09T23:34:48.814Z,9.63
2023-12-09T23:37:15.604Z,9.40
2023-12-09T23:39:42.356Z,8.98
2023-12-09T23:42:09.165Z,8.85
2023-12-09T23:44:35.954Z,9.57
2023-12-09T23:47:02.705Z,9.43
2023-12-09T23:49:29.544Z,8.25
2023-12-09T23:51:56.308Z,7.30
2023-12-09T23:54:23.192Z,9.35
2023-12-09T23:56:49.944Z,7.88
2023-12-09T23:59:16.649Z,8.73
